Data for 03/22/2008

Time Sea-Level Adjusted Pressure Absolute Pressure Temperature Relative Humidity Dew Point   
(mb) (inHg) (mb) (inHg) (C) (F) (%) (C) (F)
00:05 1029 30.39 858 25.34 -4.8 23.4 73 -8.9 15.9
00:10 1029 30.39 858 25.34 -5 23 73 -9.2 15.5
00:15 1029 30.39 858 25.34 -5.2 22.6 73 -9.4 15.1
00:20 1029 30.39 858 25.34 -5.3 22.4 72 -9.6 14.7
00:25 1029 30.39 858 25.34 -5.4 22.2 72 -9.7 14.5
00:30 1029 30.39 858 25.34 -5.6 21.9 72 -9.9 14.2
00:35 1029 30.39 858 25.34 -5.4 22.3 71 -9.8 14.3
00:40 1029 30.39 858 25.34 -5.4 22.2 71 -9.8 14.3
00:45 1029 30.39 858 25.34 -5.4 22.2 71 -10 14.1
00:50 1029 30.39 858 25.34 -5.1 22.8 69 -9.9 14.1
00:55 1029 30.39 858 25.34 -5.2 22.6 70 -9.9 14.1
01:00 1029 30.39 858 25.34 -5.5 22.1 70 -10.1 13.8
01:05 1029 30.39 858 25.34 -5.4 22.3 69 -10.2 13.7
01:10 1029 30.39 858 25.34 -5.1 22.9 68 -10.1 13.8
01:15 1029 30.39 858 25.34 -5 23.1 68 -10.1 13.9
01:20 1029 30.39 858 25.34 -5 23.1 68 -10 13.9
01:25 1029 30.39 858 25.34 -4.9 23.2 67 -10.1 13.8
01:30 1029 30.39 858 25.34 -4.8 23.4 66 -10.2 13.7
01:35 1029 30.39 859 25.37 -4.6 23.6 65 -10.2 13.6
01:40 1029 30.39 859 25.37 -4.7 23.6 66 -10.1 13.7
01:45 1029 30.39 859 25.37 -4.6 23.8 65 -10.2 13.6
01:50 1029 30.39 859 25.37 -4.5 23.9 65 -10 13.9
01:55 1029 30.39 859 25.37 -4.4 24.1 66 -9.9 14.1
02:00 1030 30.42 859 25.37 -4.3 24.3 66 -9.8 14.3
02:05 1030 30.42 859 25.37 -4.2 24.4 65 -9.7 14.5
02:10 1030 30.42 859 25.37 -4.2 24.5 66 -9.7 14.5
02:15 1030 30.42 859 25.37 -4.1 24.6 66 -9.6 14.7
02:20 1030 30.42 859 25.37 -4.1 24.7 65 -9.6 14.7
02:25 1030 30.42 859 25.37 -4 24.7 65 -9.6 14.7
02:30 1030 30.42 859 25.37 -4.1 24.7 66 -9.5 14.9
02:35 1030 30.42 859 25.37 -4.1 24.7 65 -9.7 14.6
02:40 1030 30.42 859 25.37 -4 24.7 65 -9.7 14.6
02:45 1030 30.42 859 25.37 -4.1 24.6 65 -9.8 14.4
02:50 1030 30.42 859 25.37 -4.1 24.6 64 -9.9 14.3
02:55 1030 30.42 859 25.37 -4.2 24.5 65 -9.8 14.3
03:00 1030 30.42 859 25.37 -4.2 24.4 65 -9.8 14.4
03:05 1030 30.42 859 25.37 -4.2 24.4 66 -9.7 14.5
03:10 1030 30.42 859 25.37 -4.3 24.2 66 -9.7 14.6
03:15 1030 30.42 859 25.37 -4.4 24.1 67 -9.7 14.6
03:20 1030 30.42 859 25.37 -4.4 24.2 67 -9.6 14.6
03:25 1030 30.42 859 25.37 -4.4 24.2 67 -9.6 14.7
03:30 1030 30.42 859 25.37 -4.4 24.1 67 -9.6 14.8
03:35 1030 30.42 859 25.37 -4.4 24.1 67 -9.6 14.7
03:40 1030 30.42 859 25.37 -4.4 24.1 67 -9.6 14.8
03:45 1030 30.42 859 25.37 -4.4 24.1 67 -9.6 14.8
03:50 1030 30.42 859 25.37 -4.2 24.4 67 -9.5 14.9
03:55 1030 30.42 859 25.37 -4.3 24.3 66 -9.7 14.6
04:00 1030 30.42 859 25.37 -4.4 24 65 -10 14.1
04:05 1030 30.42 859 25.37 -4.5 24 65 -10.1 13.8
04:10 1030 30.42 859 25.37 -4.4 24.1 65 -10.1 13.9
04:15 1030 30.42 859 25.37 -4.4 24.1 64 -10.2 13.7
04:20 1030 30.42 859 25.37 -4.4 24 64 -10.3 13.5
04:25 1030 30.42 859 25.37 -4.5 23.9 64 -10.3 13.5
04:30 1030 30.42 859 25.37 -4.5 23.9 64 -10.3 13.5
04:35 1030 30.42 859 25.37 -4.6 23.8 64 -10.3 13.4
04:40 1030 30.42 859 25.37 -4.6 23.8 64 -10.4 13.3
04:45 1030 30.42 859 25.37 -4.7 23.5 64 -10.5 13.1
04:50 1030 30.42 859 25.37 -4.9 23.1 64 -10.8 12.6
04:55 1030 30.42 859 25.37 -4.9 23.1 63 -10.9 12.3
05:00 1030 30.42 859 25.37 -4.7 23.5 62 -10.9 12.4
05:05 1030 30.42 859 25.37 -4.7 23.5 63 -10.7 12.7
05:10 1030 30.42 859 25.37 -5.1 22.9 65 -10.6 12.9
05:15 1030 30.42 860 25.4 -5.5 22.2 68 -10.5 13.1
05:20 1030 30.42 860 25.4 -5.7 21.7 70 -10.4 13.3
05:25 1030 30.42 860 25.4 -5.9 21.4 71 -10.3 13.5
05:30 1030 30.42 860 25.4 -6 21.2 73 -10.1 13.8
05:35 1030 30.42 860 25.4 -6 21.1 73 -10.1 13.9
05:40 1030 30.42 860 25.4 -6.2 20.8 74 -10 13.9
05:45 1030 30.42 860 25.4 -6.4 20.4 75 -10.1 13.7
05:50 1030 30.42 859 25.37 -6.6 20.2 76 -10.1 13.8
05:55 1030 30.42 859 25.37 -6.6 20.1 76 -10.1 13.8
06:00 1030 30.42 860 25.4 -6.7 20 77 -10.1 13.8
06:05 1030 30.42 860 25.4 -6.7 19.9 77 -10.1 13.8
06:10 1030 30.42 860 25.4 -6.8 19.8 77 -10.2 13.7
06:15 1030 30.42 860 25.4 -6.9 19.5 77 -10.3 13.5
06:20 1030 30.42 860 25.4 -7.1 19.3 78 -10.3 13.5
06:25 1031 30.45 860 25.4 -7.2 19 78 -10.3 13.4
06:30 1031 30.45 860 25.4 -7.4 18.8 79 -10.4 13.2
06:35 1031 30.45 860 25.4 -7.5 18.6 79 -10.5 13.1
06:40 1031 30.45 860 25.4 -7.5 18.4 79 -10.5 13
06:45 1031 30.45 860 25.4 -7.7 18.2 80 -10.6 12.9
06:50 1031 30.45 860 25.4 -7.7 18.2 80 -10.6 12.9
06:55 1031 30.45 860 25.4 -7.8 18 80 -10.7 12.8
07:00 1031 30.45 860 25.4 -7.9 17.8 80 -10.7 12.7
07:05 1031 30.45 860 25.4 -7.9 17.8 80 -10.8 12.6
07:10 1031 30.45 860 25.4 -7.9 17.7 80 -10.8 12.6
07:15 1031 30.45 860 25.4 -8.1 17.5 80 -10.9 12.4
07:20 1031 30.45 860 25.4 -8.1 17.5 80 -11 12.2
07:25 1031 30.45 860 25.4 -8.3 17.2 80 -11.2 11.9
07:30 1031 30.45 860 25.4 -8.5 16.7 80 -11.3 11.6
07:35 1031 30.45 860 25.4 -8.7 16.4 80 -11.5 11.4
07:40 1031 30.45 860 25.4 -8.8 16.2 81 -11.5 11.3
07:45 1031 30.45 860 25.4 -8.8 16.2 80 -11.5 11.2
07:50 1031 30.45 860 25.4 -8.8 16.2 80 -11.5 11.2
07:55 1031 30.45 860 25.4 -8.7 16.3 81 -11.5 11.3
08:00 1031 30.45 860 25.4 -8.5 16.7 80 -11.4 11.6
08:05 1031 30.45 860 25.4 -8.2 17.2 80 -11.2 11.9
08:10 1031 30.45 861 25.43 -7.9 17.8 79 -11 12.2
08:15 1031 30.45 861 25.43 -7.7 18.2 77 -11 12.2
08:20 1031 30.45 861 25.43 -7.6 18.3 77 -11 12.2
08:25 1031 30.45 861 25.43 -7.5 18.6 76 -11 12.1
08:30 1031 30.45 861 25.43 -7.1 19.3 75 -10.8 12.6
08:35 1031 30.45 861 25.43 -6.6 20.1 74 -10.6 12.9
08:40 1031 30.45 861 25.43 -6.2 20.9 72 -10.4 13.2
08:45 1031 30.45 861 25.43 -5.8 21.5 71 -10.3 13.4
08:50 1031 30.45 861 25.43 -5.6 22 69 -10.4 13.3
08:55 1031 30.45 861 25.43 -5.1 22.8 68 -10.2 13.6
09:00 1031 30.45 861 25.43 -4.8 23.4 66 -10.2 13.6
09:05 1032 30.47 861 25.43 -4.7 23.5 65 -10.3 13.4
09:10 1032 30.47 861 25.43 -4.4 24.1 64 -10.1 13.7
09:15 1032 30.47 861 25.43 -4 24.9 62 -10.2 13.6
09:20 1032 30.47 861 25.43 -3.7 25.3 61 -10.2 13.7
09:25 1032 30.47 861 25.43 -3.5 25.8 60 -10.2 13.6
09:30 1032 30.47 861 25.43 -3.4 25.8 59 -10.4 13.3
09:35 1032 30.47 861 25.43 -3.5 25.7 58 -10.5 13
09:40 1032 30.47 861 25.43 -3.8 25.2 59 -10.6 12.9
09:45 1032 30.47 861 25.43 -4.1 24.7 60 -10.7 12.7
09:50 1032 30.47 861 25.43 -4.2 24.4 60 -10.9 12.5
09:55 1032 30.47 861 25.43 -4.1 24.7 61 -10.6 13
10:00 1032 30.47 861 25.43 -3.5 25.8 60 -10.1 13.8
10:05 1032 30.47 861 25.43 -2.9 26.8 59 -9.8 14.4
10:10 1032 30.47 861 25.43 -2.5 27.5 57 -9.8 14.3
10:15 1032 30.47 861 25.43 -2.9 26.8 56 -10.4 13.2
10:20 1032 30.47 861 25.43 -2.8 27 56 -10.3 13.4
10:25 1032 30.47 861 25.43 -2.3 27.9 53 -10.5 13.1
10:30 1032 30.47 861 25.43 -1.9 28.6 53 -10.4 13.3
10:35 1032 30.47 861 25.43 -1.1 30 48 -10.7 12.8
10:40 1032 30.47 861 25.43 -1.2 29.9 47 -11 12.1
10:45 1032 30.47 861 25.43 -1.4 29.4 47 -11.4 11.5
10:50 1032 30.47 861 25.43 -1.2 29.9 48 -10.9 12.3
10:55 1032 30.47 861 25.43 -1 30.2 46 -11.4 11.5
11:00 1032 30.47 861 25.43 -1.4 29.4 46 -11.7 11
11:05 1032 30.47 861 25.43 -1 30.2 47 -11 12.2
11:10 1032 30.47 861 25.43 -0.4 31.3 45 -11 12.2
11:15 1032 30.47 861 25.43 -1 30.3 46 -11.1 12
11:20 1032 30.47 861 25.43 -1 30.1 47 -11 12.2
11:25 1032 30.47 861 25.43 -0.4 31.2 45 -11 12.2
11:30 1032 30.47 861 25.43 -0.2 31.6 45 -10.9 12.4
11:35 1032 30.47 861 25.43 0 32 46 -10.3 13.5
11:40 1032 30.47 861 25.43 0.1 32.2 44 -10.8 12.6
11:45 1032 30.47 861 25.43 -0.6 30.9 45 -11 12.2
11:50 1032 30.47 861 25.43 -1.3 29.7 48 -10.8 12.5
11:55 1032 30.47 861 25.43 -0.9 30.3 49 -10.5 13.2
12:00 1032 30.47 861 25.43 -0.6 30.9 47 -10.6 12.8
12:05 1032 30.47 861 25.43 -0.2 31.7 47 -10.2 13.6
12:10 1032 30.47 861 25.43 0.1 32.3 48 -9.6 14.7
12:15 1032 30.47 861 25.43 0.3 32.6 46 -10 14
12:20 1032 30.47 861 25.43 -0.1 31.9 47 -10 14
12:25 1032 30.47 861 25.43 0.4 32.8 48 -9.4 15.1
12:30 1032 30.47 861 25.43 1.2 34.1 46 -9.2 15.5
12:35 1032 30.47 861 25.43 1.5 34.7 44 -9.5 15
12:40 1031 30.45 861 25.43 1.5 34.7 41 -10.3 13.4
12:45 1031 30.45 861 25.43 1.1 33.9 43 -10.2 13.7
12:50 1031 30.45 861 25.43 1.8 35.2 42 -9.8 14.3
12:55 1031 30.45 861 25.43 1.5 34.7 42 -10.1 13.8
13:00 1031 30.45 861 25.43 1.3 34.3 43 -10 14.1
13:05 1031 30.45 861 25.43 1.9 35.3 41 -10.2 13.7
13:10 1031 30.45 861 25.43 0.2 32.4 49 -9.3 15.2
13:15 1031 30.45 861 25.43 0.5 32.9 45 -10 13.9
13:20 1031 30.45 860 25.4 1.3 34.3 46 -9.2 15.5
13:25 1031 30.45 860 25.4 2.4 36.3 41 -9.6 14.8
13:30 1031 30.45 860 25.4 2 35.5 43 -9.2 15.4
13:35 1031 30.45 860 25.4 1.9 35.5 43 -9.4 15.1
13:40 1031 30.45 860 25.4 1.2 34.2 42 -10.3 13.5
13:45 1031 30.45 860 25.4 1.6 34.8 41 -10.4 13.3
13:50 1031 30.45 860 25.4 2.1 35.8 42 -9.5 14.9
13:55 1031 30.45 860 25.4 2.4 36.4 42 -9.2 15.5
14:00 1031 30.45 860 25.4 2.4 36.3 40 -10 13.9
14:05 1031 30.45 860 25.4 2.2 36 39 -10.2 13.6
14:10 1031 30.45 860 25.4 2.1 35.8 38 -10.7 12.8
14:15 1031 30.45 860 25.4 1.7 35.1 39 -10.8 12.5
14:20 1031 30.45 860 25.4 1.9 35.4 39 -10.5 13
14:25 1031 30.45 860 25.4 2.1 35.8 40 -10.3 13.5
14:30 1031 30.45 860 25.4 2 35.7 41 -10 14
14:35 1031 30.45 860 25.4 2.3 36.2 38 -10.6 13
14:40 1031 30.45 860 25.4 2.3 36.2 40 -9.9 14.2
14:45 1030 30.42 860 25.4 3 37.4 38 -10.1 13.9
14:50 1030 30.42 860 25.4 3.6 38.5 36 -10.2 13.6
14:55 1030 30.42 860 25.4 3.8 38.8 36 -9.9 14.1
15:00 1030 30.42 860 25.4 3.5 38.4 35 -10.5 13.1
15:05 1030 30.42 859 25.37 3.4 38.2 37 -10.1 13.8
15:10 1030 30.42 859 25.37 2.7 36.9 40 -9.6 14.7
15:15 1030 30.42 859 25.37 2.2 35.9 41 -9.7 14.5
15:20 1030 30.42 859 25.37 2.3 36.1 40 -10.1 13.9
15:25 1030 30.42 859 25.37 2.2 36 40 -10.2 13.7
15:30 1030 30.42 859 25.37 2.4 36.3 42 -9.3 15.3
15:35 1030 30.42 859 25.37 3 37.5 38 -9.9 14.2
15:40 1030 30.42 859 25.37 2.3 36.1 42 -9.3 15.2
15:45 1030 30.42 859 25.37 2.7 36.9 39 -10.1 13.9
15:50 1030 30.42 859 25.37 3.6 38.4 38 -9.6 14.7
15:55 1030 30.42 859 25.37 4 39.2 37 -9.3 15.3
16:00 1030 30.42 859 25.37 3.7 38.7 37 -9.6 14.7
16:05 1030 30.42 859 25.37 4.4 40 34 -10.1 13.9
16:10 1030 30.42 859 25.37 4.4 40 33 -10.3 13.4
16:15 1030 30.42 859 25.37 3.6 38.4 35 -10.5 13
16:20 1030 30.42 859 25.37 4.1 39.4 33 -10.6 12.8
16:25 1030 30.42 859 25.37 3.2 37.8 35 -10.9 12.4
16:30 1030 30.42 859 25.37 3 37.4 35 -10.9 12.3
16:35 1030 30.42 859 25.37 3 37.3 36 -10.9 12.5
16:40 1030 30.42 859 25.37 2.9 37.1 36 -11 12.2
16:45 1030 30.42 859 25.37 3.1 37.6 35 -10.9 12.3
16:50 1030 30.42 859 25.37 2.8 37.1 35 -11 12.1
16:55 1030 30.42 859 25.37 2.9 37.2 36 -10.7 12.7
17:00 1030 30.42 859 25.37 3.4 38.1 37 -10 14
17:05 1030 30.42 859 25.37 3.6 38.4 35 -10.5 13.2
17:10 1030 30.42 859 25.37 2.6 36.7 38 -10.4 13.3
17:15 1030 30.42 859 25.37 2.4 36.3 38 -10.6 12.9
17:20 1030 30.42 859 25.37 3.2 37.8 35 -10.8 12.6
17:25 1030 30.42 859 25.37 2.4 36.4 37 -10.8 12.6
17:30 1030 30.42 859 25.37 3 37.5 36 -10.5 13.1
17:35 1030 30.42 859 25.37 3.8 38.8 37 -9.7 14.5
17:40 1030 30.42 859 25.37 3.2 37.7 39 -9.4 15
17:45 1030 30.42 859 25.37 3.1 37.7 39 -9.6 14.7
17:50 1030 30.42 859 25.37 3.4 38.1 38 -9.6 14.7
17:55 1030 30.42 859 25.37 3.6 38.4 38 -9.4 15.1
18:00 1029 30.39 859 25.37 4.1 39.4 35 -9.9 14.2
18:05 1029 30.39 859 25.37 4.2 39.5 35 -9.9 14.2
18:10 1029 30.39 859 25.37 4 39.2 35 -10.1 13.8
18:15 1029 30.39 859 25.37 3.9 39.1 34 -10.5 13.2
18:20 1029 30.39 859 25.37 3.8 38.9 37 -9.6 14.8
18:25 1029 30.39 859 25.37 3.9 38.9 36 -9.8 14.3
18:30 1029 30.39 859 25.37 4 39.3 37 -9.5 14.9
18:35 1029 30.39 858 25.34 3.7 38.7 37 -9.5 14.8
18:40 1029 30.39 858 25.34 2.3 36.2 42 -9.3 15.2
18:45 1029 30.39 858 25.34 1.7 35.1 42 -9.9 14.2
18:50 1029 30.39 858 25.34 1.3 34.4 42 -10.1 13.8
18:55 1029 30.39 858 25.34 1 33.8 43 -10.2 13.7
19:00 1029 30.39 858 25.34 1 33.7 44 -10.1 13.9
19:05 1029 30.39 858 25.34 1 33.8 44 -9.9 14.1
19:10 1029 30.39 858 25.34 1 33.9 43 -10.1 13.8
19:15 1029 30.39 858 25.34 0.8 33.4 45 -10 14
19:20 1029 30.39 858 25.34 0.6 33 46 -9.9 14.3
19:25 1029 30.39 858 25.34 0.4 32.8 46 -9.9 14.2
19:30 1029 30.39 858 25.34 0.4 32.7 46 -10 14
19:35 1029 30.39 858 25.34 0.3 32.6 46 -10.1 13.9
19:40 1029 30.39 858 25.34 0.2 32.3 46 -10.1 13.8
19:45 1029 30.39 858 25.34 -0 32 46 -10.2 13.6
19:50 1029 30.39 858 25.34 -0.1 31.8 47 -10.2 13.6
19:55 1029 30.39 858 25.34 -0.3 31.5 49 -9.9 14.3
20:00 1029 30.39 858 25.34 -0.4 31.3 50 -9.5 14.8
20:05 1029 30.39 858 25.34 -0.4 31.3 52 -9.2 15.5
20:10 1029 30.39 858 25.34 -0.5 31 53 -8.9 15.9
20:15 1029 30.39 858 25.34 -0.9 30.5 56 -8.7 16.4
20:20 1029 30.39 858 25.34 -1.2 29.8 57 -8.7 16.4
20:25 1029 30.39 858 25.34 -1.4 29.4 59 -8.5 16.7
20:30 1029 30.39 858 25.34 -1.7 29 60 -8.4 16.9
20:35 1029 30.39 858 25.34 -1.8 28.7 61 -8.4 16.8
20:40 1029 30.39 858 25.34 -1.8 28.8 61 -8.3 17
20:45 1029 30.39 858 25.34 -2.1 28.3 63 -8.3 17.1
20:50 1029 30.39 858 25.34 -2.4 27.7 63 -8.4 16.9
20:55 1029 30.39 858 25.34 -2.5 27.6 64 -8.4 16.9
21:00 1029 30.39 858 25.34 -2.7 27.1 64 -8.6 16.6
21:05 1029 30.39 858 25.34 -2.9 26.7 64 -8.8 16.2
21:10 1029 30.39 858 25.34 -3 26.6 64 -8.9 16.1
21:15 1029 30.39 858 25.34 -3 26.6 63 -9 15.8
21:20 1029 30.39 858 25.34 -3.1 26.4 63 -9.3 15.3
21:25 1029 30.39 858 25.34 -3.2 26.3 62 -9.4 15
21:30 1029 30.39 858 25.34 -3.1 26.5 62 -9.4 15.2
21:35 1029 30.39 858 25.34 -3.1 26.5 62 -9.3 15.2
21:40 1029 30.39 858 25.34 -3.1 26.4 63 -9.3 15.3
21:45 1029 30.39 858 25.34 -3.2 26.3 63 -9.3 15.2
21:50 1029 30.39 858 25.34 -3.2 26.2 63 -9.4 15.1
21:55 1029 30.39 858 25.34 -3.5 25.7 64 -9.3 15.2
22:00 1029 30.39 858 25.34 -3.8 25.2 65 -9.4 15.1
22:05 1029 30.39 858 25.34 -4 24.8 66 -9.4 15.1
22:10 1029 30.39 858 25.34 -4 24.8 66 -9.4 15.1
22:15 1029 30.39 858 25.34 -4.1 24.7 67 -9.3 15.3
22:20 1029 30.39 858 25.34 -4.2 24.4 68 -9.3 15.3
22:25 1029 30.39 858 25.34 -4.3 24.2 68 -9.4 15.2
22:30 1029 30.39 858 25.34 -4.4 24.2 68 -9.3 15.2
22:35 1029 30.39 858 25.34 -4.4 24 69 -9.4 15.1
22:40 1029 30.39 858 25.34 -4.5 23.9 69 -9.4 15
22:45 1029 30.39 858 25.34 -4.4 24 68 -9.4 15
22:50 1028 30.36 858 25.34 -4.2 24.4 67 -9.5 14.9
22:55 1028 30.36 858 25.34 -4.2 24.5 66 -9.5 14.9
23:00 1028 30.36 857 25.31 -4.3 24.2 66 -9.7 14.6
23:05 1028 30.36 857 25.31 -4.3 24.2 65 -9.9 14.3
23:10 1028 30.36 857 25.31 -4.3 24.2 67 -9.7 14.6
23:15 1028 30.36 857 25.31 -4.7 23.6 68 -9.7 14.5
23:20 1028 30.36 857 25.31 -4.7 23.5 68 -9.8 14.4
23:25 1028 30.36 857 25.31 -4.8 23.4 68 -9.9 14.2
23:30 1028 30.36 857 25.31 -4.8 23.4 67 -10 14
23:35 1028 30.36 857 25.31 -4.7 23.6 66 -10.1 13.8
23:40 1028 30.36 857 25.31 -4.5 23.9 65 -10.2 13.7
23:45 1028 30.36 857 25.31 -4.4 24.1 64 -10.3 13.5
23:50 1028 30.36 857 25.31 -4.4 24.1 64 -10.2 13.7
23:55 1028 30.36 857 25.31 -4.4 24.1 64 -10.3 13.5
24:00 1028 30.36 857 25.31 -4.2 24.4 63 -10.2 13.6